sensor_id;sensor_type;location;lat;lon;timestamp;pressure;altitude;pressure_sealevel;temperature;humidity
16834;BME280;8533;48.426;10.868;2023-03-22T00:02:05;95957.70;;;9.88;100.00
16834;BME280;8533;48.426;10.868;2023-03-22T00:04:32;95970.73;;;9.85;100.00
16834;BME280;8533;48.426;10.868;2023-03-22T00:07:01;95972.23;;;9.81;100.00
16834;BME280;8533;48.426;10.868;2023-03-22T00:09:28;95984.25;;;9.80;100.00
16834;BME280;8533;48.426;10.868;2023-03-22T00:11:56;95975.59;;;9.77;100.00
16834;BME280;8533;48.426;10.868;2023-03-22T00:14:23;95969.52;;;9.71;100.00
16834;BME280;8533;48.426;10.868;2023-03-22T00:16:50;95971.30;;;9.68;100.00
16834;BME280;8533;48.426;10.868;2023-03-22T00:19:18;95972.33;;;9.67;100.00
16834;BME280;8533;48.426;10.868;2023-03-22T00:21:46;95971.02;;;9.65;100.00
16834;BME280;8533;48.426;10.868;2023-03-22T00:24:13;95982.17;;;9.60;100.00
16834;BME280;8533;48.426;10.868;2023-03-22T00:26:40;95973.78;;;9.58;100.00
16834;BME280;8533;48.426;10.868;2023-03-22T00:29:08;95977.17;;;9.56;100.00
16834;BME280;8533;48.426;10.868;2023-03-22T00:31:35;95978.20;;;9.55;100.00
16834;BME280;8533;48.426;10.868;2023-03-22T00:34:03;95974.80;;;9.54;100.00
16834;BME280;8533;48.426;10.868;2023-03-22T00:36:30;95965.11;;;9.52;100.00
16834;BME280;8533;48.426;10.868;2023-03-22T00:38:57;95962.73;;;9.51;100.00
16834;BME280;8533;48.426;10.868;2023-03-22T00:41:25;95967.15;;;9.48;100.00
16834;BME280;8533;48.426;10.868;2023-03-22T00:43:53;95974.19;;;9.47;100.00
16834;BME280;8533;48.426;10.868;2023-03-22T00:46:21;95971.30;;;9.46;100.00
16834;BME280;8533;48.426;10.868;2023-03-22T00:48:48;95967.90;;;9.46;100.00
16834;BME280;8533;48.426;10.868;2023-03-22T00:51:16;95963.98;;;9.46;100.00
16834;BME280;8533;48.426;10.868;2023-03-22T00:53:44;95963.66;;;9.42;100.00
16834;BME280;8533;48.426;10.868;2023-03-22T00:56:13;95959.75;;;9.42;100.00
16834;BME280;8533;48.426;10.868;2023-03-22T00:58:41;95961.33;;;9.43;100.00
16834;BME280;8533;48.426;10.868;2023-03-22T01:01:10;95968.92;;;9.45;100.00
16834;BME280;8533;48.426;10.868;2023-03-22T01:03:41;95971.53;;;9.45;100.00
16834;BME280;8533;48.426;10.868;2023-03-22T01:06:09;95975.41;;;9.42;100.00
16834;BME280;8533;48.426;10.868;2023-03-22T01:08:37;95977.50;;;9.43;100.00
16834;BME280;8533;48.426;10.868;2023-03-22T01:11:06;95971.50;;;9.42;100.00
16834;BME280;8533;48.426;10.868;2023-03-22T01:13:34;95971.50;;;9.42;100.00
16834;BME280;8533;48.426;10.868;2023-03-22T01:16:08;95967.86;;;9.43;100.00
16834;BME280;8533;48.426;10.868;2023-03-22T01:18:36;95964.97;;;9.42;100.00
16834;BME280;8533;48.426;10.868;2023-03-22T01:21:04;95966.55;;;9.43;100.00
16834;BME280;8533;48.426;10.868;2023-03-22T01:23:31;95960.77;;;9.41;100.00
16834;BME280;8533;48.426;10.868;2023-03-22T01:25:59;95958.16;;;9.41;100.00
16834;BME280;8533;48.426;10.868;2023-03-22T01:28:27;95952.70;;;9.40;100.00
16834;BME280;8533;48.426;10.868;2023-03-22T01:30:55;95947.72;;;9.41;100.00
16834;BME280;8533;48.426;10.868;2023-03-22T01:33:23;95937.08;;;9.45;100.00
16834;BME280;8533;48.426;10.868;2023-03-22T01:35:51;95933.73;;;9.47;100.00
16834;BME280;8533;48.426;10.868;2023-03-22T01:38:19;95934.23;;;9.47;100.00
16834;BME280;8533;48.426;10.868;2023-03-22T01:40:46;95933.69;;;9.45;100.00
16834;BME280;8533;48.426;10.868;2023-03-22T01:43:15;95934.44;;;9.43;100.00
16834;BME280;8533;48.426;10.868;2023-03-22T01:45:48;95926.84;;;9.41;100.00
16834;BME280;8533;48.426;10.868;2023-03-22T01:48:19;95932.56;;;9.38;100.00
16834;BME280;8533;48.426;10.868;2023-03-22T01:50:59;95932.80;;;9.37;100.00
16834;BME280;8533;48.426;10.868;2023-03-22T01:53:27;95933.08;;;9.38;100.00
16834;BME280;8533;48.426;10.868;2023-03-22T01:55:57;95918.20;;;9.38;100.00
16834;BME280;8533;48.426;10.868;2023-03-22T01:58:25;95925.52;;;9.39;100.00
16834;BME280;8533;48.426;10.868;2023-03-22T02:00:53;95919.51;;;9.38;100.00
16834;BME280;8533;48.426;10.868;2023-03-22T02:03:35;95923.44;;;9.41;100.00
16834;BME280;8533;48.426;10.868;2023-03-22T02:06:00;95922.69;;;9.43;100.00
16834;BME280;8533;48.426;10.868;2023-03-22T02:08:29;95921.42;;;9.45;100.00
16834;BME280;8533;48.426;10.868;2023-03-22T02:10:56;95921.98;;;9.47;100.00
16834;BME280;8533;48.426;10.868;2023-03-22T02:13:29;95923.56;;;9.48;100.00
16834;BME280;8533;48.426;10.868;2023-03-22T02:16:00;95917.31;;;9.52;100.00
16834;BME280;8533;48.426;10.868;2023-03-22T02:24:23;95915.30;;;9.56;100.00
16834;BME280;8533;48.426;10.868;2023-03-22T02:32:11;95905.05;;;9.52;100.00
16834;BME280;8533;48.426;10.868;2023-03-22T02:35:17;95909.48;;;9.52;100.00
16834;BME280;8533;48.426;10.868;2023-03-22T02:42:54;95901.88;;;9.48;100.00
16834;BME280;8533;48.426;10.868;2023-03-22T02:45:33;95902.13;;;9.46;100.00
16834;BME280;8533;48.426;10.868;2023-03-22T02:50:34;95894.48;;;9.42;100.00
16834;BME280;8533;48.426;10.868;2023-03-22T02:53:18;95896.82;;;9.41;100.00
16834;BME280;8533;48.426;10.868;2023-03-22T02:55:44;95892.91;;;9.41;100.00
16834;BME280;8533;48.426;10.868;2023-03-22T02:58:16;95901.80;;;9.40;100.00
16834;BME280;8533;48.426;10.868;2023-03-22T03:00:45;95895.23;;;9.38;100.00
16834;BME280;8533;48.426;10.868;2023-03-22T03:03:15;95902.78;;;9.37;100.00
16834;BME280;8533;48.426;10.868;2023-03-22T03:05:51;95899.89;;;9.36;100.00
16834;BME280;8533;48.426;10.868;2023-03-22T03:08:16;95901.44;;;9.34;100.00
16834;BME280;8533;48.426;10.868;2023-03-22T03:10:44;95901.42;;;9.32;100.00
16834;BME280;8533;48.426;10.868;2023-03-22T03:13:14;95901.63;;;9.28;100.00
16834;BME280;8533;48.426;10.868;2023-03-22T03:15:45;95898.69;;;9.22;100.00
16834;BME280;8533;48.426;10.868;2023-03-22T03:18:36;95894.16;;;9.14;100.00
16834;BME280;8533;48.426;10.868;2023-03-22T03:21:28;95893.28;;;9.09;100.00
16834;BME280;8533;48.426;10.868;2023-03-22T03:26:42;95900.29;;;8.87;100.00
16834;BME280;8533;48.426;10.868;2023-03-22T03:29:37;95902.00;;;8.78;100.00
16834;BME280;8533;48.426;10.868;2023-03-22T03:32:04;95897.75;;;8.72;100.00
16834;BME280;8533;48.426;10.868;2023-03-22T03:34:50;95902.85;;;8.65;100.00
16834;BME280;8533;48.426;10.868;2023-03-22T03:40:47;95908.63;;;8.50;100.00
16834;BME280;8533;48.426;10.868;2023-03-22T03:43:11;95914.69;;;8.39;100.00
16834;BME280;8533;48.426;10.868;2023-03-22T03:45:40;95916.81;;;8.28;100.00
16834;BME280;8533;48.426;10.868;2023-03-22T03:48:13;95914.88;;;8.21;100.00
16834;BME280;8533;48.426;10.868;2023-03-22T03:50:41;95918.34;;;8.10;100.00
16834;BME280;8533;48.426;10.868;2023-03-22T03:53:08;95919.23;;;8.01;100.00
16834;BME280;8533;48.426;10.868;2023-03-22T03:55:36;95913.62;;;7.92;100.00
16834;BME280;8533;48.426;10.868;2023-03-22T03:58:03;95918.69;;;7.85;100.00
16834;BME280;8533;48.426;10.868;2023-03-22T04:00:31;95919.48;;;7.85;100.00
16834;BME280;8533;48.426;10.868;2023-03-22T04:02:58;95913.99;;;7.84;100.00
16834;BME280;8533;48.426;10.868;2023-03-22T04:05:25;95912.46;;;7.86;100.00
16834;BME280;8533;48.426;10.868;2023-03-22T04:07:53;95905.39;;;7.84;100.00
16834;BME280;8533;48.426;10.868;2023-03-22T04:10:20;95907.94;;;7.81;100.00
16834;BME280;8533;48.426;10.868;2023-03-22T04:12:48;95901.63;;;7.77;100.00
16834;BME280;8533;48.426;10.868;2023-03-22T04:15:16;95909.61;;;7.73;100.00
16834;BME280;8533;48.426;10.868;2023-03-22T04:17:43;95903.52;;;7.68;100.00
16834;BME280;8533;48.426;10.868;2023-03-22T04:20:12;95906.58;;;7.64;100.00
16834;BME280;8533;48.426;10.868;2023-03-22T04:22:40;95904.97;;;7.61;100.00
16834;BME280;8533;48.426;10.868;2023-03-22T04:25:11;95904.12;;;7.58;100.00
16834;BME280;8533;48.426;10.868;2023-03-22T04:27:40;95898.55;;;7.52;100.00
16834;BME280;8533;48.426;10.868;2023-03-22T04:30:15;95903.98;;;7.50;100.00
16834;BME280;8533;48.426;10.868;2023-03-22T04:32:40;95904.42;;;7.47;100.00
16834;BME280;8533;48.426;10.868;2023-03-22T04:35:08;95900.15;;;7.41;100.00
16834;BME280;8533;48.426;10.868;2023-03-22T04:37:36;95902.44;;;7.38;100.00
16834;BME280;8533;48.426;10.868;2023-03-22T04:40:03;95900.23;;;7.32;100.00
16834;BME280;8533;48.426;10.868;2023-03-22T04:42:33;95906.64;;;7.27;100.00
16834;BME280;8533;48.426;10.868;2023-03-22T04:45:01;95902.11;;;7.22;100.00
16834;BME280;8533;48.426;10.868;2023-03-22T04:47:29;95906.71;;;7.18;100.00
16834;BME280;8533;48.426;10.868;2023-03-22T04:49:56;95901.86;;;7.10;100.00
16834;BME280;8533;48.426;10.868;2023-03-22T04:52:24;95906.90;;;7.02;100.00
16834;BME280;8533;48.426;10.868;2023-03-22T04:54:51;95903.92;;;6.96;100.00
16834;BME280;8533;48.426;10.868;2023-03-22T04:57:19;95905.38;;;6.92;100.00
16834;BME280;8533;48.426;10.868;2023-03-22T04:59:47;95903.41;;;6.85;100.00
16834;BME280;8533;48.426;10.868;2023-03-22T05:02:15;95909.52;;;6.79;100.00
16834;BME280;8533;48.426;10.868;2023-03-22T05:04:42;95906.53;;;6.73;100.00
16834;BME280;8533;48.426;10.868;2023-03-22T05:07:10;95913.91;;;6.67;100.00
16834;BME280;8533;48.426;10.868;2023-03-22T05:09:37;95912.94;;;6.59;100.00
16834;BME280;8533;48.426;10.868;2023-03-22T05:12:05;95920.12;;;6.54;100.00
16834;BME280;8533;48.426;10.868;2023-03-22T05:14:32;95918.19;;;6.49;100.00
16834;BME280;8533;48.426;10.868;2023-03-22T05:17:00;95914.25;;;6.47;100.00
16834;BME280;8533;48.426;10.868;2023-03-22T05:19:28;95912.30;;;6.42;100.00
16834;BME280;8533;48.426;10.868;2023-03-22T05:21:56;95920.09;;;6.42;100.00
16834;BME280;8533;48.426;10.868;2023-03-22T05:24:25;95918.66;;;6.46;100.00
16834;BME280;8533;48.426;10.868;2023-03-22T05:26:53;95918.14;;;6.47;100.00
16834;BME280;8533;48.426;10.868;2023-03-22T05:29:20;95921.53;;;6.47;100.00
16834;BME280;8533;48.426;10.868;2023-03-22T05:31:48;95924.13;;;6.47;100.00
16834;BME280;8533;48.426;10.868;2023-03-22T05:34:15;95919.66;;;6.45;100.00
16834;BME280;8533;48.426;10.868;2023-03-22T05:36:43;95922.48;;;6.44;100.00
16834;BME280;8533;48.426;10.868;2023-03-22T05:39:10;95927.96;;;6.45;100.00
16834;BME280;8533;48.426;10.868;2023-03-22T05:41:39;95927.67;;;6.44;100.00
16834;BME280;8533;48.426;10.868;2023-03-22T05:44:07;95930.05;;;6.45;100.00
16834;BME280;8533;48.426;10.868;2023-03-22T05:46:34;95928.97;;;6.44;100.00
16834;BME280;8533;48.426;10.868;2023-03-22T05:49:01;95924.35;;;6.46;100.00
16834;BME280;8533;48.426;10.868;2023-03-22T05:51:29;95922.66;;;6.51;100.00
16834;BME280;8533;48.426;10.868;2023-03-22T05:53:56;95919.33;;;6.54;100.00
16834;BME280;8533;48.426;10.868;2023-03-22T05:56:24;95932.90;;;6.56;100.00
16834;BME280;8533;48.426;10.868;2023-03-22T05:58:51;95923.84;;;6.58;100.00
16834;BME280;8533;48.426;10.868;2023-03-22T06:01:19;95927.30;;;6.61;100.00
16834;BME280;8533;48.426;10.868;2023-03-22T06:03:48;95932.31;;;6.65;100.00
16834;BME280;8533;48.426;10.868;2023-03-22T06:06:16;95930.36;;;6.70;100.00
16834;BME280;8533;48.426;10.868;2023-03-22T06:08:43;95924.55;;;6.77;100.00
16834;BME280;8533;48.426;10.868;2023-03-22T06:11:11;95917.89;;;6.81;100.00
16834;BME280;8533;48.426;10.868;2023-03-22T06:13:38;95921.16;;;6.88;100.00
16834;BME280;8533;48.426;10.868;2023-03-22T06:16:06;95914.54;;;6.95;100.00
16834;BME280;8533;48.426;10.868;2023-03-22T06:18:34;95919.17;;;7.04;100.00
16834;BME280;8533;48.426;10.868;2023-03-22T06:21:01;95909.81;;;7.17;100.00
16834;BME280;8533;48.426;10.868;2023-03-22T06:23:29;95920.75;;;7.31;100.00
16834;BME280;8533;48.426;10.868;2023-03-22T06:25:56;95917.78;;;7.51;100.00
16834;BME280;8533;48.426;10.868;2023-03-22T06:28:24;95924.41;;;7.70;100.00
16834;BME280;8533;48.426;10.868;2023-03-22T06:30:53;95927.59;;;7.89;100.00
16834;BME280;8533;48.426;10.868;2023-03-22T06:33:20;95929.05;;;8.11;100.00
16834;BME280;8533;48.426;10.868;2023-03-22T06:35:48;95925.98;;;8.30;100.00
16834;BME280;8533;48.426;10.868;2023-03-22T06:38:15;95924.78;;;8.50;100.00
16834;BME280;8533;48.426;10.868;2023-03-22T06:40:43;95925.75;;;8.63;100.00
16834;BME280;8533;48.426;10.868;2023-03-22T06:43:10;95921.60;;;8.81;100.00
16834;BME280;8533;48.426;10.868;2023-03-22T06:45:37;95922.84;;;8.95;100.00
16834;BME280;8533;48.426;10.868;2023-03-22T06:48:05;95924.30;;;9.05;100.00
16834;BME280;8533;48.426;10.868;2023-03-22T06:50:33;95924.17;;;9.17;100.00
16834;BME280;8533;48.426;10.868;2023-03-22T06:53:02;95924.69;;;9.36;100.00
16834;BME280;8533;48.426;10.868;2023-03-22T06:55:30;95916.34;;;9.58;100.00
16834;BME280;8533;48.426;10.868;2023-03-22T06:58:00;95920.53;;;9.81;100.00
16834;BME280;8533;48.426;10.868;2023-03-22T07:00:28;95925.75;;;10.08;100.00
16834;BME280;8533;48.426;10.868;2023-03-22T07:02:58;95928.70;;;10.41;100.00
16834;BME280;8533;48.426;10.868;2023-03-22T07:05:26;95927.91;;;10.69;100.00
16834;BME280;8533;48.426;10.868;2023-03-22T07:07:53;95925.35;;;10.77;98.70
16834;BME280;8533;48.426;10.868;2023-03-22T07:10:21;95926.33;;;10.71;98.12
16834;BME280;8533;48.426;10.868;2023-03-22T07:12:48;95920.98;;;10.53;99.00
16834;BME280;8533;48.426;10.868;2023-03-22T07:15:16;95925.91;;;10.50;100.00
16834;BME280;8533;48.426;10.868;2023-03-22T07:17:44;95925.52;;;10.65;99.89
16834;BME280;8533;48.426;10.868;2023-03-22T07:20:11;95916.23;;;10.87;98.06
16834;BME280;8533;48.426;10.868;2023-03-22T07:22:38;95915.50;;;10.92;96.45
16834;BME280;8533;48.426;10.868;2023-03-22T07:25:06;95912.69;;;11.01;96.15
16834;BME280;8533;48.426;10.868;2023-03-22T07:27:33;95919.52;;;11.07;95.52
16834;BME280;8533;48.426;10.868;2023-03-22T07:30:03;95920.89;;;11.17;93.66
16834;BME280;8533;48.426;10.868;2023-03-22T07:32:30;95915.41;;;11.21;93.67
16834;BME280;8533;48.426;10.868;2023-03-22T07:34:58;95920.18;;;11.32;92.71
16834;BME280;8533;48.426;10.868;2023-03-22T07:37:25;95923.61;;;11.35;91.77
16834;BME280;8533;48.426;10.868;2023-03-22T07:39:53;95917.62;;;11.42;91.96
16834;BME280;8533;48.426;10.868;2023-03-22T07:42:20;95919.45;;;11.41;90.98
16834;BME280;8533;48.426;10.868;2023-03-22T07:44:47;95918.70;;;11.54;90.13
16834;BME280;8533;48.426;10.868;2023-03-22T07:47:15;95927.06;;;11.48;89.39
16834;BME280;8533;48.426;10.868;2023-03-22T07:49:44;95923.98;;;11.64;88.44
16834;BME280;8533;48.426;10.868;2023-03-22T07:52:11;95928.45;;;11.66;87.28
16834;BME280;8533;48.426;10.868;2023-03-22T07:54:38;95926.95;;;11.80;86.57
16834;BME280;8533;48.426;10.868;2023-03-22T07:57:06;95922.52;;;11.88;86.25
16834;BME280;8533;48.426;10.868;2023-03-22T07:59:33;95917.85;;;12.05;85.56
16834;BME280;8533;48.426;10.868;2023-03-22T08:02:01;95910.81;;;12.23;83.62
16834;BME280;8533;48.426;10.868;2023-03-22T08:04:29;95911.88;;;12.40;82.24
16834;BME280;8533;48.426;10.868;2023-03-22T08:06:56;95910.80;;;12.41;81.71
16834;BME280;8533;48.426;10.868;2023-03-22T08:09:25;95911.09;;;12.55;81.41
16834;BME280;8533;48.426;10.868;2023-03-22T08:11:53;95914.20;;;12.92;79.22
16834;BME280;8533;48.426;10.868;2023-03-22T08:14:21;95912.86;;;13.23;77.38
16834;BME280;8533;48.426;10.868;2023-03-22T08:16:48;95918.59;;;13.45;75.92
16834;BME280;8533;48.426;10.868;2023-03-22T08:19:16;95923.27;;;13.56;75.90
16834;BME280;8533;48.426;10.868;2023-03-22T08:21:45;95917.28;;;13.43;74.64
16834;BME280;8533;48.426;10.868;2023-03-22T08:24:12;95918.30;;;13.52;74.01
16834;BME280;8533;48.426;10.868;2023-03-22T08:26:40;95910.95;;;13.54;73.93
16834;BME280;8533;48.426;10.868;2023-03-22T08:29:07;95914.30;;;13.64;73.13
16834;BME280;8533;48.426;10.868;2023-03-22T08:31:35;95912.05;;;13.97;71.89
16834;BME280;8533;48.426;10.868;2023-03-22T08:34:02;95903.62;;;14.02;71.68
16834;BME280;8533;48.426;10.868;2023-03-22T08:36:30;95905.57;;;14.26;70.72
16834;BME280;8533;48.426;10.868;2023-03-22T08:38:57;95904.97;;;14.39;69.82
16834;BME280;8533;48.426;10.868;2023-03-22T08:41:25;95907.48;;;14.54;68.56
16834;BME280;8533;48.426;10.868;2023-03-22T08:43:52;95897.80;;;14.49;68.50
16834;BME280;8533;48.426;10.868;2023-03-22T08:46:20;95904.65;;;14.79;66.62
16834;BME280;8533;48.426;10.868;2023-03-22T08:48:47;95902.75;;;14.85;64.82
16834;BME280;8533;48.426;10.868;2023-03-22T08:51:17;95904.05;;;14.87;64.78
16834;BME280;8533;48.426;10.868;2023-03-22T08:53:46;95904.52;;;15.45;62.06
16834;BME280;8533;48.426;10.868;2023-03-22T08:56:15;95904.28;;;15.41;61.64
16834;BME280;8533;48.426;10.868;2023-03-22T08:58:43;95893.98;;;15.69;58.96
16834;BME280;8533;48.426;10.868;2023-03-22T09:01:13;95892.04;;;15.77;56.93
16834;BME280;8533;48.426;10.868;2023-03-22T09:03:42;95894.08;;;16.55;55.24
16834;BME280;8533;48.426;10.868;2023-03-22T09:06:10;95895.92;;;16.89;54.31
16834;BME280;8533;48.426;10.868;2023-03-22T09:08:39;95892.72;;;17.49;53.78
16834;BME280;8533;48.426;10.868;2023-03-22T09:11:11;95891.73;;;17.32;52.57
16834;BME280;8533;48.426;10.868;2023-03-22T09:13:39;95890.70;;;17.30;52.12
16834;BME280;8533;48.426;10.868;2023-03-22T09:16:06;95890.52;;;17.40;51.77
16834;BME280;8533;48.426;10.868;2023-03-22T09:18:35;95878.41;;;18.03;50.77
16834;BME280;8533;48.426;10.868;2023-03-22T09:21:04;95875.05;;;18.00;49.79
16834;BME280;8533;48.426;10.868;2023-03-22T09:23:33;95876.20;;;18.07;48.80
16834;BME280;8533;48.426;10.868;2023-03-22T09:26:02;95867.86;;;18.36;47.76
16834;BME280;8533;48.426;10.868;2023-03-22T09:28:31;95872.55;;;18.50;47.68
16834;BME280;8533;48.426;10.868;2023-03-22T09:31:03;95868.88;;;18.38;46.71
16834;BME280;8533;48.426;10.868;2023-03-22T09:33:32;95863.66;;;18.57;46.96
16834;BME280;8533;48.426;10.868;2023-03-22T09:36:00;95861.55;;;19.10;45.39
16834;BME280;8533;48.426;10.868;2023-03-22T09:38:27;95860.11;;;19.24;45.08
16834;BME280;8533;48.426;10.868;2023-03-22T09:40:59;95859.81;;;19.45;43.76
16834;BME280;8533;48.426;10.868;2023-03-22T09:43:32;95854.81;;;19.04;43.73
16834;BME280;8533;48.426;10.868;2023-03-22T09:46:02;95860.19;;;18.90;44.23
16834;BME280;8533;48.426;10.868;2023-03-22T09:48:36;95858.45;;;18.97;44.89
16834;BME280;8533;48.426;10.868;2023-03-22T09:51:05;95854.20;;;18.76;45.11
16834;BME280;8533;48.426;10.868;2023-03-22T09:53:33;95854.61;;;18.36;45.26
16834;BME280;8533;48.426;10.868;2023-03-22T09:56:22;95855.13;;;17.91;46.06
16834;BME280;8533;48.426;10.868;2023-03-22T09:58:52;95854.06;;;18.25;45.76
16834;BME280;8533;48.426;10.868;2023-03-22T10:01:27;95849.16;;;17.97;46.66
16834;BME280;8533;48.426;10.868;2023-03-22T10:04:01;95854.01;;;18.28;46.81
16834;BME280;8533;48.426;10.868;2023-03-22T10:06:27;95853.17;;;18.30;46.76
16834;BME280;8533;48.426;10.868;2023-03-22T10:09:11;95851.72;;;18.35;46.31
16834;BME280;8533;48.426;10.868;2023-03-22T10:11:44;95840.91;;;17.62;47.63
16834;BME280;8533;48.426;10.868;2023-03-22T10:14:30;95842.69;;;17.78;48.94
16834;BME280;8533;48.426;10.868;2023-03-22T10:17:00;95847.55;;;17.98;47.84
16834;BME280;8533;48.426;10.868;2023-03-22T10:19:47;95839.63;;;18.20;46.86
16834;BME280;8533;48.426;10.868;2023-03-22T10:22:09;95831.16;;;18.32;47.33
16834;BME280;8533;48.426;10.868;2023-03-22T10:24:38;95833.36;;;18.05;46.48
16834;BME280;8533;48.426;10.868;2023-03-22T10:27:13;95833.16;;;18.02;47.09
16834;BME280;8533;48.426;10.868;2023-03-22T10:32:18;95835.23;;;18.27;48.23
16834;BME280;8533;48.426;10.868;2023-03-22T10:34:47;95829.75;;;18.79;46.93
16834;BME280;8533;48.426;10.868;2023-03-22T10:37:17;95831.20;;;19.05;46.19
16834;BME280;8533;48.426;10.868;2023-03-22T10:39:47;95819.63;;;19.21;46.24
16834;BME280;8533;48.426;10.868;2023-03-22T10:42:21;95826.16;;;18.95;45.38
16834;BME280;8533;48.426;10.868;2023-03-22T10:44:54;95831.20;;;19.33;45.07
16834;BME280;8533;48.426;10.868;2023-03-22T10:47:42;95831.13;;;19.56;44.95
16834;BME280;8533;48.426;10.868;2023-03-22T10:50:12;95827.84;;;19.50;44.74
16834;BME280;8533;48.426;10.868;2023-03-22T10:52:43;95817.68;;;20.06;43.53
16834;BME280;8533;48.426;10.868;2023-03-22T10:55:13;95821.67;;;20.41;43.69
16834;BME280;8533;48.426;10.868;2023-03-22T10:57:45;95818.70;;;20.83;42.23
16834;BME280;8533;48.426;10.868;2023-03-22T11:00:14;95811.55;;;20.89;42.13
16834;BME280;8533;48.426;10.868;2023-03-22T11:02:51;95806.75;;;20.74;42.98
16834;BME280;8533;48.426;10.868;2023-03-22T11:05:26;95804.97;;;21.10;42.21
16834;BME280;8533;48.426;10.868;2023-03-22T11:07:50;95798.12;;;21.01;42.37
16834;BME280;8533;48.426;10.868;2023-03-22T11:10:20;95789.88;;;21.46;41.42
16834;BME280;8533;48.426;10.868;2023-03-22T11:13:09;95775.84;;;21.73;40.78
16834;BME280;8533;48.426;10.868;2023-03-22T11:15:30;95782.44;;;21.46;40.79
16834;BME280;8533;48.426;10.868;2023-03-22T11:18:07;95785.09;;;21.46;40.45
16834;BME280;8533;48.426;10.868;2023-03-22T11:20:34;95775.96;;;21.55;40.23
16834;BME280;8533;48.426;10.868;2023-03-22T11:23:03;95766.95;;;22.16;39.68
16834;BME280;8533;48.426;10.868;2023-03-22T11:25:34;95769.33;;;22.30;39.25
16834;BME280;8533;48.426;10.868;2023-03-22T11:28:17;95771.42;;;21.97;39.25
16834;BME280;8533;48.426;10.868;2023-03-22T11:31:03;95768.44;;;21.99;39.31
16834;BME280;8533;48.426;10.868;2023-03-22T11:33:31;95760.00;;;22.69;38.68
16834;BME280;8533;48.426;10.868;2023-03-22T11:36:02;95752.06;;;22.93;37.88
16834;BME280;8533;48.426;10.868;2023-03-22T11:38:39;95758.63;;;22.51;39.09
16834;BME280;8533;48.426;10.868;2023-03-22T11:41:10;95750.47;;;22.74;38.09
16834;BME280;8533;48.426;10.868;2023-03-22T11:43:41;95751.16;;;23.07;37.49
16834;BME280;8533;48.426;10.868;2023-03-22T11:46:14;95747.23;;;23.47;36.52
16834;BME280;8533;48.426;10.868;2023-03-22T11:48:44;95748.33;;;22.73;36.97
16834;BME280;8533;48.426;10.868;2023-03-22T11:51:16;95743.37;;;23.33;36.12
16834;BME280;8533;48.426;10.868;2023-03-22T11:53:45;95741.14;;;22.80;36.50
16834;BME280;8533;48.426;10.868;2023-03-22T11:56:19;95736.47;;;22.95;37.34
16834;BME280;8533;48.426;10.868;2023-03-22T11:59:04;95730.94;;;22.94;36.48
16834;BME280;8533;48.426;10.868;2023-03-22T12:01:45;95723.52;;;22.49;37.20
16834;BME280;8533;48.426;10.868;2023-03-22T12:04:10;95723.19;;;22.56;37.44
16834;BME280;8533;48.426;10.868;2023-03-22T12:06:39;95716.95;;;22.46;36.05
16834;BME280;8533;48.426;10.868;2023-03-22T12:09:12;95716.55;;;22.68;35.33
16834;BME280;8533;48.426;10.868;2023-03-22T12:11:40;95716.46;;;23.26;34.11
16834;BME280;8533;48.426;10.868;2023-03-22T12:14:32;95707.35;;;22.96;33.89
16834;BME280;8533;48.426;10.868;2023-03-22T12:16:46;95708.38;;;22.86;33.65
16834;BME280;8533;48.426;10.868;2023-03-22T12:19:22;95707.69;;;23.07;33.59
16834;BME280;8533;48.426;10.868;2023-03-22T12:21:49;95708.25;;;22.82;34.16
16834;BME280;8533;48.426;10.868;2023-03-22T12:24:33;95708.02;;;23.05;34.39
16834;BME280;8533;48.426;10.868;2023-03-22T12:27:03;95709.45;;;23.15;33.42
16834;BME280;8533;48.426;10.868;2023-03-22T12:29:29;95701.66;;;23.34;33.85
16834;BME280;8533;48.426;10.868;2023-03-22T12:32:05;95702.66;;;23.76;33.96
16834;BME280;8533;48.426;10.868;2023-03-22T12:34:37;95707.89;;;23.78;33.83
16834;BME280;8533;48.426;10.868;2023-03-22T12:37:05;95697.53;;;23.49;33.25
16834;BME280;8533;48.426;10.868;2023-03-22T12:42:14;95695.84;;;23.84;33.52
16834;BME280;8533;48.426;10.868;2023-03-22T12:44:40;95703.75;;;23.41;33.92
16834;BME280;8533;48.426;10.868;2023-03-22T12:47:24;95694.45;;;23.16;34.62
16834;BME280;8533;48.426;10.868;2023-03-22T12:50:03;95692.86;;;22.36;35.31
16834;BME280;8533;48.426;10.868;2023-03-22T12:52:41;95694.75;;;21.35;37.54
16834;BME280;8533;48.426;10.868;2023-03-22T12:55:06;95697.39;;;20.99;37.08
16834;BME280;8533;48.426;10.868;2023-03-22T12:57:36;95688.14;;;21.61;36.69
16834;BME280;8533;48.426;10.868;2023-03-22T13:00:11;95688.30;;;21.71;36.47
16834;BME280;8533;48.426;10.868;2023-03-22T13:02:38;95681.44;;;21.97;36.39
16834;BME280;8533;48.426;10.868;2023-03-22T13:05:09;95687.14;;;21.87;36.40
16834;BME280;8533;48.426;10.868;2023-03-22T13:21:18;95672.44;;;22.53;36.55
16834;BME280;8533;48.426;10.868;2023-03-22T13:27:11;95661.94;;;22.23;36.12
16834;BME280;8533;48.426;10.868;2023-03-22T13:28:56;95653.07;;;22.25;36.36
16834;BME280;8533;48.426;10.868;2023-03-22T13:31:39;95653.77;;;22.65;36.42
16834;BME280;8533;48.426;10.868;2023-03-22T13:34:01;95648.22;;;22.52;35.81
16834;BME280;8533;48.426;10.868;2023-03-22T13:36:31;95645.88;;;22.50;36.05
16834;BME280;8533;48.426;10.868;2023-03-22T13:38:59;95644.87;;;22.55;35.28
16834;BME280;8533;48.426;10.868;2023-03-22T13:41:32;95646.41;;;22.13;35.71
16834;BME280;8533;48.426;10.868;2023-03-22T13:44:24;95647.27;;;21.78;35.76
16834;BME280;8533;48.426;10.868;2023-03-22T13:46:52;95648.91;;;21.70;36.40
16834;BME280;8533;48.426;10.868;2023-03-22T13:51:57;95636.05;;;21.25;37.07
16834;BME280;8533;48.426;10.868;2023-03-22T13:54:31;95642.19;;;20.96;37.98
16834;BME280;8533;48.426;10.868;2023-03-22T13:56:57;95642.52;;;20.50;38.05
16834;BME280;8533;48.426;10.868;2023-03-22T13:59:29;95642.18;;;20.52;38.83
16834;BME280;8533;48.426;10.868;2023-03-22T14:02:09;95636.00;;;20.39;37.63
16834;BME280;8533;48.426;10.868;2023-03-22T14:04:44;95633.53;;;20.26;38.34